createdAt,value
2022-08-30T04:19:29.239Z,100.00
2022-08-30T04:22:32.613Z,100.00
2022-08-30T04:25:36.999Z,100.00
2022-08-30T04:28:39.958Z,100.00
2022-08-30T04:31:42.744Z,100.00
2022-08-30T04:34:46.875Z,100.00
2022-08-30T04:37:52.131Z,100.00
2022-08-30T04:40:55.281Z,100.00
2022-08-30T04:43:57.766Z,100.00
2022-08-30T04:47:00.552Z,100.00
2022-08-30T04:50:03.515Z,100.00
2022-08-30T04:53:06.303Z,100.00
2022-08-30T04:56:12.261Z,100.00
2022-08-30T04:59:15.186Z,100.00
2022-08-30T05:02:18.479Z,100.00
2022-08-30T05:05:39.831Z,100.00
2022-08-30T05:08:46.639Z,100.00
2022-08-30T05:11:50.069Z,100.00
2022-08-30T05:14:52.722Z,100.00
2022-08-30T05:17:55.500Z,100.00
2022-08-30T05:21:11.682Z,100.00
2022-08-30T05:24:14.415Z,100.00
2022-08-30T05:27:16.979Z,100.00
2022-08-30T05:30:20.796Z,100.00
2022-08-30T05:33:23.341Z,100.00
2022-08-30T05:36:28.972Z,100.00
2022-08-30T05:39:45.152Z,100.00
2022-08-30T05:42:54.255Z,100.00
2022-08-30T05:46:08.661Z,100.00
2022-08-30T05:49:11.719Z,100.00
2022-08-30T05:52:17.958Z,100.00
2022-08-30T05:55:21.164Z,100.00
2022-08-30T05:58:23.786Z,100.00
2022-08-30T06:01:41.058Z,100.00
2022-08-30T06:04:43.864Z,100.00
2022-08-30T06:07:46.397Z,100.00
2022-08-30T06:10:49.279Z,100.00
2022-08-30T06:13:55.805Z,100.00
2022-08-30T06:16:58.528Z,100.00
2022-08-30T06:20:01.519Z,100.00
2022-08-30T06:23:04.319Z,100.00
2022-08-30T06:26:08.369Z,100.00
2022-08-30T06:29:14.779Z,100.00
2022-08-30T06:32:17.225Z,95.46
2022-08-30T06:35:19.974Z,95.17
2022-08-30T06:38:22.653Z,91.31
2022-08-30T06:41:28.849Z,91.58
2022-08-30T06:44:31.434Z,88.44
2022-08-30T06:47:34.177Z,86.60
2022-08-30T06:50:36.738Z,85.75
2022-08-30T06:53:41.208Z,87.27
2022-08-30T06:56:57.797Z,87.91
2022-08-30T07:00:02.531Z,86.43
2022-08-30T07:03:05.150Z,84.65
2022-08-30T07:06:08.872Z,84.83
2022-08-30T07:09:11.482Z,83.10
2022-08-30T07:12:17.466Z,82.34
2022-08-30T07:15:22.923Z,83.83
2022-08-30T07:18:46.141Z,83.27
2022-08-30T07:21:49.465Z,78.91
2022-08-30T07:24:52.398Z,76.39
2022-08-30T07:27:55.631Z,69.94
2022-08-30T07:30:58.648Z,68.49
2022-08-30T07:34:01.162Z,66.84
2022-08-30T07:37:03.869Z,64.35
2022-08-30T07:40:09.970Z,62.12
2022-08-30T07:43:12.902Z,60.21
2022-08-30T07:46:16.231Z,58.64
2022-08-30T07:49:20.047Z,59.76
2022-08-30T07:52:22.551Z,54.11
2022-08-30T07:55:25.467Z,49.60
2022-08-30T07:58:28.071Z,44.34
2022-08-30T08:01:31.211Z,42.74
2022-08-30T08:04:35.578Z,45.04
2022-08-30T08:07:38.126Z,43.86
2022-08-30T08:10:42.763Z,42.88
2022-08-30T08:13:53.235Z,47.94
2022-08-30T08:16:57.473Z,47.26
2022-08-30T08:19:59.987Z,45.81
2022-08-30T08:23:02.953Z,44.72
2022-08-30T08:26:05.951Z,46.51
2022-08-30T08:29:10.083Z,44.12
2022-08-30T08:32:12.620Z,46.36
2022-08-30T08:35:16.916Z,46.07
2022-08-30T08:38:19.580Z,45.51
2022-08-30T08:41:37.648Z,44.39
2022-08-30T08:44:54.449Z,45.29
2022-08-30T08:48:45.657Z,42.31
2022-08-30T08:52:13.375Z,41.16
2022-08-30T08:55:20.943Z,43.19
2022-08-30T08:58:26.401Z,44.71
2022-08-30T09:01:30.795Z,42.14
2022-08-30T09:04:38.057Z,41.78
2022-08-30T09:07:45.311Z,41.67
2022-08-30T09:14:38.831Z,42.24
2022-08-30T09:17:53.552Z,40.74
2022-08-30T09:24:47.653Z,43.00
2022-08-30T09:27:52.838Z,41.15
2022-08-30T09:31:03.902Z,40.68
2022-08-30T09:34:09.721Z,41.71
2022-08-30T09:37:30.338Z,42.41
2022-08-30T09:40:42.361Z,43.15
2022-08-30T09:43:44.994Z,43.52
2022-08-30T09:46:51.138Z,40.96
2022-08-30T09:50:07.878Z,41.87
2022-08-30T09:53:32.939Z,38.53
2022-08-30T09:57:01.095Z,39.24
2022-08-30T10:08:14.067Z,38.32
2022-08-30T10:11:44.981Z,35.25
2022-08-30T10:15:31.266Z,34.91
2022-08-30T10:18:40.730Z,33.94
2022-08-30T10:22:05.604Z,36.07
2022-08-30T10:25:18.591Z,38.05
2022-08-30T10:28:35.267Z,40.40
2022-08-30T10:32:02.853Z,40.73
2022-08-30T10:35:10.933Z,40.45
2022-08-30T10:38:30.803Z,39.75
2022-08-30T10:41:50.263Z,40.54
2022-08-30T10:44:56.602Z,41.27
2022-08-30T10:48:09.134Z,39.71
2022-08-30T10:51:39.798Z,32.40
2022-08-30T10:54:56.407Z,28.76
2022-08-30T10:58:06.284Z,29.89
2022-08-30T11:01:46.576Z,31.20
2022-08-30T11:04:49.591Z,33.19
2022-08-30T11:07:58.019Z,35.26
2022-08-30T11:11:31.656Z,33.64
2022-08-30T11:14:34.583Z,33.94
2022-08-30T11:21:49.961Z,35.52
2022-08-30T11:25:38.775Z,35.57
2022-08-30T11:28:41.315Z,36.10
2022-08-30T11:31:44.640Z,35.52
2022-08-30T11:34:55.487Z,34.69
2022-08-30T11:37:58.325Z,35.17
2022-08-30T11:41:30.003Z,34.86
2022-08-30T11:44:34.612Z,36.28
2022-08-30T11:47:45.624Z,38.44
2022-08-30T11:51:06.039Z,37.75
2022-08-30T11:54:20.954Z,38.68
2022-08-30T11:57:30.144Z,37.28
2022-08-30T12:00:42.007Z,37.09
2022-08-30T12:03:55.186Z,37.99
2022-08-30T12:07:04.124Z,37.80
2022-08-30T12:10:21.072Z,37.85
2022-08-30T12:13:40.475Z,38.07
2022-08-30T12:17:07.376Z,37.58
2022-08-30T12:20:52.060Z,36.72
2022-08-30T12:24:40.251Z,35.21
2022-08-30T12:27:42.806Z,35.63
2022-08-30T12:30:46.656Z,37.94
2022-08-30T12:34:00.774Z,39.49
2022-08-30T12:37:10.797Z,37.91
2022-08-30T12:40:18.229Z,37.55
2022-08-30T12:43:40.797Z,38.17
2022-08-30T12:46:48.339Z,37.52
2022-08-30T12:49:52.924Z,37.86
2022-08-30T12:53:02.346Z,38.84
2022-08-30T12:56:12.798Z,40.36
2022-08-30T12:59:34.499Z,40.75
2022-08-30T13:02:56.791Z,40.15
2022-08-30T13:06:00.094Z,40.41
2022-08-30T13:09:05.763Z,42.21
2022-08-30T13:12:20.275Z,41.29
2022-08-30T13:15:32.518Z,41.86
2022-08-30T13:18:35.458Z,44.05
2022-08-30T13:22:24.032Z,43.03
2022-08-30T13:25:30.931Z,44.68
2022-08-30T13:28:53.986Z,45.79
2022-08-30T13:31:57.099Z,45.93
2022-08-30T13:35:00.044Z,44.49
2022-08-30T13:38:02.862Z,44.93
2022-08-30T13:41:22.318Z,47.60
2022-08-30T13:44:24.872Z,48.74
